Flight Track Log - Related Links

Times and Time Zones

All times are in EDT time to prevent confusion due to time zone crossing. See the N269C flight status page for this flight to view local times or setup timezone preferences in your user account.

Time Position Orientation Groundspeed Altitude Reporting Facility
EDT Latitude Longitude Course Direction KTS MPH feet Rate Location/Type
Fri 03:39:54 PM 43.5600 -116.5858 269° West 140 161 5,000  Level Salt Lake Center
Fri 03:40:42 PM 43.5592 -116.6311 269° West 140 161 5,500 675 Climbing Salt Lake Center
Fri 03:41:14 PM 43.5456 -116.6592 236° Southwest 144 166 5,900 830 Climbing Salt Lake Center
Fri 03:42:16 PM 43.5392 -116.7108 260° West 139 160 6,800 774 Climbing Salt Lake Center
Fri 03:43:18 PM 43.5364 -116.7619 266° West 135 155 7,500 726 Climbing Salt Lake Center
Fri 03:44:20 PM 43.5328 -116.8111 264° West 130 150 8,300 677 Climbing Salt Lake Center
Fri 03:45:22 PM 43.5283 -116.8619 263° West 133 153 8,900 677 Climbing Salt Lake Center
Fri 03:46:24 PM 43.5208 -116.9258 261° West 140 161 9,700 726 Climbing Salt Lake Center
Fri 03:47:26 PM 43.5133 -116.9769 259° West 138 159 10,400 629 Climbing Salt Lake Center
Fri 03:48:28 PM 43.5072 -117.0292 261° West 139 160 11,000 532 Climbing Salt Lake Center
Fri 03:49:30 PM 43.5011 -117.0814 261° West 137 158 11,500 484 Climbing Salt Lake Center
Fri 03:50:32 PM 43.4944 -117.1319 260° West 135 155 12,000 484 Climbing Salt Lake Center
Fri 03:51:34 PM 43.4875 -117.1847 260° West 139 160 12,500 532 Climbing Salt Lake Center
Fri 03:52:36 PM 43.4797 -117.2492 261° West 143 165 13,100 532 Climbing Salt Lake Center
Fri 03:53:38 PM 43.4722 -117.3044 259° West 147 169 13,600 488 Climbing Salt Lake Center
Fri 03:54:39 PM 43.4644 -117.3608 259° West 150 173 14,100 488 Climbing Salt Lake Center
Fri 03:55:41 PM 43.4575 -117.4186 261° West 153 176 14,600 435 Climbing Salt Lake Center
Fri 03:56:43 PM 43.4500 -117.4744 260° West 151 174 15,000 435 Climbing Salt Lake Center
Fri 03:57:45 PM 43.4428 -117.5294 260° West 147 169 15,500 435 Climbing Salt Lake Center
Fri 03:58:47 PM 43.4367 -117.5861 262° West 151 174 15,900 240 Climbing Salt Lake Center
Fri 03:59:50 PM 43.4256 -117.6606 258° West 168 193 16,000 48 Climbing Salt Lake Center
Fri 04:00:52 PM 43.4169 -117.7244 260° West 170 196 16,000  Level Salt Lake Center
Fri 04:01:54 PM 43.4086 -117.7886 260° West 171 197 16,000  Level Salt Lake Center
Fri 04:02:56 PM 43.3989 -117.8558 259° West 178 205 16,000  Level Salt Lake Center
Fri 04:03:58 PM 43.3906 -117.9217 260° West 176 203 16,000  Level Salt Lake Center
Fri 04:05:00 PM 43.3811 -117.9883 259° West 178 205 16,000  Level Salt Lake Center
Fri 04:06:02 PM 43.3706 -118.0681 260° West 178 205 16,000  Level Salt Lake Center
Fri 04:07:04 PM 43.3614 -118.1342 259° West 178 205 16,000  Level Salt Lake Center
Fri 04:08:06 PM 43.3519 -118.2042 260° West 187 215 16,000  Level Salt Lake Center
Fri 04:09:09 PM 43.3433 -118.2744 260° West 184 212 16,000  Level Salt Lake Center
Fri 04:10:10 PM 43.3347 -118.3428 260° West 183 211 16,000  Level Salt Lake Center
Fri 04:11:12 PM 43.3253 -118.4100 259° West 180 207 16,000  Level Salt Lake Center
Fri 04:12:14 PM 43.3167 -118.4722 259° West 172 198 16,000  Level Salt Lake Center
Fri 04:13:16 PM 43.3067 -118.5458 259° West 166 191 16,000  Level Salt Lake Center
Fri 04:14:18 PM 43.2967 -118.6106 258° West 171 197 16,000  Level Salt Lake Center
Fri 04:15:20 PM 43.2878 -118.6736 259° West 171 197 16,000  Level Salt Lake Center
Fri 04:16:22 PM 43.2803 -118.7353 261° West 168 193 16,000  Level Salt Lake Center
Fri 04:17:24 PM 43.2706 -118.8006 258° West 171 197 16,000  Level Salt Lake Center
Fri 04:18:26 PM 43.2617 -118.8669 260° West 176 203 16,000  Level Salt Lake Center
Fri 04:19:30 PM 43.2458 -118.9397 253° West 172 198 16,000  Level Seattle Center
Fri 04:20:31 PM 43.2375 -119.0075 260° West 174 200 16,000  Level Seattle Center
Fri 04:21:31 PM 43.2319 -119.0767 264° West 178 205 16,000  Level Seattle Center
Fri 04:22:32 PM 43.2206 -119.1392 256° West 175 201 16,000  Level Seattle Center
Fri 04:23:33 PM 43.2100 -119.2006 257° West 170 196 16,000  Level Seattle Center
Fri 04:24:34 PM 43.2003 -119.2669 259° West 174 200 16,000  Level Seattle Center
Fri 04:25:35 PM 43.1928 -119.3392 262° West 167 192 16,000  Level Seattle Center
Fri 04:26:36 PM 43.1811 -119.3989 255° West 165 190 16,000  Level Seattle Center
Fri 04:27:37 PM 43.1719 -119.4642 259° West 172 198 16,000  Level Seattle Center
Fri 04:28:38 PM 43.1633 -119.5294 260° West 175 201 16,000  Level Seattle Center
Fri 04:29:39 PM 43.1536 -119.5950 259° West 176 203 16,000  Level Seattle Center
Fri 04:30:40 PM 43.1436 -119.6594 258° West 175 201 16,000  Level Seattle Center
Fri 04:31:40 PM 43.1339 -119.7256 259° West 178 205 16,000  Level Seattle Center
Fri 04:32:41 PM 43.1231 -119.7881 257° West 171 197 16,000  Level Seattle Center
Fri 04:33:42 PM 43.1139 -119.8544 259° West 176 203 16,000  Level Seattle Center
Fri 04:34:43 PM 43.1039 -119.9194 258° West 178 205 16,000  Level Seattle Center
Fri 04:35:44 PM 43.0953 -119.9850 260° West 175 201 16,000  Level Seattle Center
Fri 04:36:45 PM 43.0856 -120.0497 258° West 174 200 16,000  Level Seattle Center
Fri 04:37:46 PM 43.0725 -120.1108 254° West 172 198 16,000  Level Seattle Center
Fri 04:38:47 PM 43.0625 -120.1836 259° West 165 190 16,000  Level Seattle Center
Fri 04:39:48 PM 43.0528 -120.2478 258° West 175 201 16,000  Level Seattle Center
Fri 04:40:49 PM 43.0425 -120.3092 257° West 170 196 16,000  Level Seattle Center
Fri 04:41:50 PM 43.0331 -120.3703 258° West 167 192 16,000  Level Seattle Center
Fri 04:42:51 PM 43.0225 -120.4333 257° West 170 196 16,000  Level Seattle Center
Fri 04:43:52 PM 43.0119 -120.4950 257° West 169 194 16,000  Level Seattle Center
Fri 04:44:53 PM 43.0025 -120.5606 259° West 172 198 16,000  Level Seattle Center
Fri 04:46:00 PM 42.9900 -120.6302 256° West  Level FlightAware Approximate
Fri 04:46:56 PM 42.9814 -120.6903 256° West 175 201 16,000  Level Seattle Center
Fri 04:47:57 PM 42.9700 -120.7542 256° West 174 200 16,000  Level Seattle Center
Fri 04:48:58 PM 42.9606 -120.8181 259° West 174 200 16,000  Level Seattle Center
Fri 04:49:59 PM 42.9492 -120.8903 258° West 165 190 16,000  Level Seattle Center
Fri 04:51:00 PM 42.9375 -120.9542 256° West 170 196 16,000  Level Seattle Center
Fri 04:52:01 PM 42.9275 -121.0142 257° West 167 192 16,000  Level Seattle Center
Fri 04:53:02 PM 42.9183 -121.0744 258° West 162 186 16,000  Level Seattle Center
Fri 04:54:03 PM 42.9083 -121.1361 258° West 166 191 16,000  Level Seattle Center
Fri 04:55:04 PM 42.8975 -121.1956 256° West 163 188 16,000  Level Seattle Center
Fri 04:56:05 PM 42.8881 -121.2578 258° West 167 192 16,000  Level Seattle Center
Fri 04:57:06 PM 42.8783 -121.3186 258° West 167 192 16,000  Level Seattle Center
Fri 04:58:07 PM 42.8678 -121.3783 256° West 163 188 16,000  Level Seattle Center
Fri 04:59:08 PM 42.8569 -121.4406 257° West 167 192 16,000  Level Seattle Center
Fri 05:00:09 PM 42.8450 -121.5128 257° West 164 189 16,000  Level Seattle Center
Fri 05:01:11 PM 42.8344 -121.5731 257° West 164 189 16,000 -195 Level Seattle Center
Fri 05:02:12 PM 42.8236 -121.6394 257° West 175 201 15,600 -443 Descending Seattle Center
Fri 05:03:13 PM 42.8117 -121.7075 257° West 184 212 15,100 -492 Descending Seattle Center
Fri 05:04:14 PM 42.8003 -121.7769 257° West 189 217 14,600 -492 Descending Seattle Center
Fri 05:05:15 PM 42.7878 -121.8436 256° West 184 212 14,100 -492 Descending Seattle Center
Fri 05:06:16 PM 42.7775 -121.9119 258° West 185 213 13,600 -443 Descending Seattle Center
Fri 05:07:17 PM 42.7639 -121.9789 255° West 186 214 13,200 -344 Descending Seattle Center
Fri 05:08:18 PM 42.7519 -122.0492 257° West 190 219 12,900 -49 Descending Seattle Center
Fri 05:09:19 PM 42.7461 -122.1156 263° West 177 204 13,100 -98 Climbing Seattle Center
Fri 05:10:20 PM 42.7369 -122.1783 259° West 171 197 12,700 -590 Descending Seattle Center
Fri 05:11:21 PM 42.7228 -122.2619 257° West 189 217 11,900 -738 Descending Seattle Center
Fri 05:12:22 PM 42.7100 -122.3311 256° West 190 219 11,200 -732 Descending Seattle Center
Fri 05:13:24 PM 42.6956 -122.4008 254° West 194 223 10,400 -683 Descending Seattle Center
Fri 05:14:25 PM 42.6800 -122.4719 253° West 196 226 9,800 -590 Descending Seattle Center
Fri 05:15:26 PM 42.6647 -122.5419 253° West 195 224 9,200 -590 Descending Seattle Center
Fri 05:16:27 PM 42.6453 -122.6086 248° West 193 222 8,600 -492 Descending Seattle Center
Fri 05:17:28 PM 42.6231 -122.6733 245° Southwest 191 220 8,200 -443 Descending Seattle Center
Fri 05:18:29 PM 42.5989 -122.7372 243° Southwest 191 220 7,700 -443 Descending Seattle Center
Fri 05:19:30 PM 42.5761 -122.8003 244° Southwest 188 216 7,300 -443 Descending Seattle Center
Fri 05:20:31 PM 42.5531 -122.8747 247° West 178 205 6,800 -492 Descending Seattle Center
Fri 05:21:32 PM 42.5297 -122.9325 241° Southwest 175 201 6,300 -492 Descending Seattle Center
Fri 05:22:33 PM 42.5033 -122.9908 238° Southwest 181 208 5,800 -443 Descending Seattle Center
Fri 05:23:34 PM 42.4803 -123.0486 242° Southwest 175 201 5,400 -295 Descending Seattle Center
Fri 05:24:35 PM 42.4631 -123.0983 245° Southwest 170 196 5,200 -197 Descending Seattle Center

Login

Don't have an account? Register now (free) for customized features, flight alerts, and more!